Time;durP1;ratioP1;P1;durP2;ratioP2;P2;SDS_P1;SDS_P2;PMS_P1;PMS_P2;Temp;Humidity;BMP_temperature;BMP_pressure;BME280_temperature;BME280_humidity;BME280_pressure;Samples;Min_cycle;Max_cycle;Signal;HPM_P1;HPM_P2
2023/06/17 00:01:46;;;;;;;22.45;11.75;;;;;;;14.46;53.85;101553.13;4964669;28;20050;-73
2023/06/17 00:04:11;;;;;;;17.42;9.00;;;;;;;14.57;54.14;101561.38;4969239;28;20057;-76
2023/06/17 00:06:37;;;;;;;15.82;9.40;;;;;;;14.65;53.78;101556.59;4964750;28;20072;-67
2023/06/17 00:09:03;;;;;;;20.65;11.10;;;;;;;14.54;53.81;101550.97;4967176;28;20157;-69
2023/06/17 00:11:29;;;;;;;18.33;9.65;;;;;;;14.59;53.55;101550.75;4962581;28;20721;-67
2023/06/17 00:13:55;;;;;;;18.80;10.00;;;;;;;14.73;53.48;101549.19;4964402;28;20034;-67
2023/06/17 00:16:20;;;;;;;17.98;10.32;;;;;;;14.85;53.33;101542.50;4965645;28;20090;-66
2023/06/17 00:18:51;;;;;;;15.50;9.90;;;;;;;14.82;52.61;101537.38;4962662;28;20058;-68
2023/06/17 00:21:17;;;;;;;20.63;11.03;;;;;;;14.80;53.15;101538.41;4963186;28;20098;-68
2023/06/17 00:23:42;;;;;;;17.02;9.85;;;;;;;14.84;52.81;101537.31;4964178;28;20142;-68
2023/06/17 00:26:08;;;;;;;12.80;9.70;;;;;;;14.75;53.28;101528.94;4966350;28;20042;-68
2023/06/17 00:28:33;;;;;;;17.92;9.65;;;;;;;14.80;52.78;101530.50;4962101;28;20089;-67
2023/06/17 00:30:59;;;;;;;22.30;9.80;;;;;;;14.36;54.15;101529.81;4962959;28;20065;-68
2023/06/17 00:33:24;;;;;;;19.58;9.48;;;;;;;14.65;53.33;101535.53;4962548;28;20146;-67
2023/06/17 00:35:50;;;;;;;18.98;9.82;;;;;;;14.71;53.21;101532.63;4962053;28;20413;-68
2023/06/17 00:38:15;;;;;;;19.60;9.48;;;;;;;14.70;53.31;101538.84;4965290;28;20034;-67
2023/06/17 00:40:40;;;;;;;13.13;9.00;;;;;;;14.70;52.92;101538.84;4939920;28;20593;-69
2023/06/17 00:43:06;;;;;;;15.43;9.55;;;;;;;14.84;53.22;101532.06;4977243;28;20476;-68
2023/06/17 00:45:38;;;;;;;20.02;9.45;;;;;;;14.62;53.48;101533.06;4960875;28;20164;-67
2023/06/17 00:48:08;;;;;;;18.60;10.18;;;;;;;14.56;53.97;101531.56;4965301;28;20034;-68
2023/06/17 00:50:36;;;;;;;13.80;8.10;;;;;;;14.83;53.54;101525.06;4958643;28;20045;-68
2023/06/17 00:53:02;;;;;;;22.05;10.15;;;;;;;14.76;53.43;101522.72;4963912;28;20046;-68
2023/06/17 00:55:28;;;;;;;18.90;9.80;;;;;;;14.55;53.74;101529.03;4962532;28;20618;-67
2023/06/17 00:57:53;;;;;;;15.82;9.02;;;;;;;14.71;53.86;101519.47;4977381;28;20038;-68
2023/06/17 01:00:19;;;;;;;17.38;9.15;;;;;;;14.68;53.70;101517.00;4963165;28;20034;-79
2023/06/17 01:02:46;;;;;;;18.38;9.38;;;;;;;14.27;54.66;101524.13;4971468;28;20792;-78
2023/06/17 01:05:14;;;;;;;18.20;9.85;;;;;;;14.40;54.57;101519.16;4969773;28;20042;-79
2023/06/17 01:08:05;;;;;;;22.00;10.40;;;;;;;14.54;54.22;101519.41;4950881;28;20618;-79
2023/06/17 01:10:37;;;;;;;17.50;9.82;;;;;;;14.34;54.76;101510.66;4981346;28;20069;-78
2023/06/17 01:13:04;;;;;;;19.38;9.10;;;;;;;13.96;55.67;101514.97;4968947;28;20090;-78
2023/06/17 01:15:34;;;;;;;18.90;9.32;;;;;;;14.19;55.08;101516.59;4983694;28;20467;-80
2023/06/17 01:18:01;;;;;;;20.77;8.95;;;;;;;14.31;54.71;101507.28;4955260;28;20034;-81
2023/06/17 01:20:28;;;;;;;22.02;9.68;;;;;;;14.27;54.91;101519.72;4966362;28;20044;-75
2023/06/17 01:22:55;;;;;;;17.42;8.50;;;;;;;14.48;54.42;101517.09;4963251;28;20065;-74
2023/06/17 01:25:29;;;;;;;23.95;9.95;;;;;;;14.47;54.23;101516.22;4963622;28;20451;-74
2023/06/17 01:28:03;;;;;;;18.55;10.80;;;;;;;14.62;53.90;101517.28;4966779;28;20026;-74
2023/06/17 01:30:29;;;;;;;19.48;9.57;;;;;;;14.62;53.89;101525.16;4963488;28;20038;-72
2023/06/17 01:32:59;;;;;;;17.88;10.15;;;;;;;14.54;53.71;101519.41;4976804;28;20100;-72
2023/06/17 01:35:32;;;;;;;17.65;9.23;;;;;;;14.65;53.41;101514.50;4963999;28;20790;-69
2023/06/17 01:38:17;;;;;;;19.83;10.00;;;;;;;14.66;53.52;101510.97;4962222;28;20233;-71
2023/06/17 01:40:52;;;;;;;20.35;10.20;;;;;;;14.79;53.31;101520.88;4953089;28;20062;-71
2023/06/17 01:43:18;;;;;;;19.73;10.68;;;;;;;14.63;53.43;101521.59;4963559;28;20049;-71
2023/06/17 01:45:47;;;;;;;21.73;10.05;;;;;;;14.62;53.92;101525.16;4962235;28;20038;-72
2023/06/17 01:48:12;;;;;;;17.08;9.73;;;;;;;14.50;53.91;101521.34;4955002;28;20105;-73
2023/06/17 01:50:38;;;;;;;22.33;10.32;;;;;;;14.53;53.99;101525.59;4963553;28;20038;-73
2023/06/17 01:53:06;;;;;;;16.63;8.65;;;;;;;14.63;54.13;101526.88;4964997;28;20679;-72
2023/06/17 01:55:31;;;;;;;18.40;9.85;;;;;;;14.72;53.81;101528.22;4967293;28;20598;-73
2023/06/17 01:57:57;;;;;;;17.90;10.27;;;;;;;14.84;53.52;101522.38;4962022;28;21224;-70
2023/06/17 02:00:23;;;;;;;19.40;10.88;;;;;;;14.74;53.88;101519.31;4961674;28;20634;-70
2023/06/17 02:02:51;;;;;;;16.25;9.15;;;;;;;14.50;54.18;101515.22;4962153;28;20038;-73
2023/06/17 02:05:19;;;;;;;22.52;9.93;;;;;;;14.73;53.89;101511.50;4956055;28;20165;-73
2023/06/17 02:07:45;;;;;;;22.45;10.63;;;;;;;14.39;54.54;101506.94;4962742;28;20030;-72
2023/06/17 02:10:12;;;;;;;20.95;10.13;;;;;;;14.51;54.51;101514.31;4960437;28;20038;-71
2023/06/17 02:12:38;;;;;;;26.58;11.73;;;;;;;14.67;54.42;101515.28;4967375;28;20061;-81
2023/06/17 02:15:04;;;;;;;18.60;10.98;;;;;;;14.69;53.98;101516.06;4953594;28;20784;-71
2023/06/17 02:17:29;;;;;;;24.40;12.02;;;;;;;14.63;54.03;101512.88;4963309;28;20099;-71
2023/06/17 02:19:56;;;;;;;23.08;11.50;;;;;;;14.64;54.20;101501.44;4964326;28;20038;-70
2023/06/17 02:22:22;;;;;;;28.33;12.95;;;;;;;14.72;53.88;101508.03;4962683;28;20803;-76
2023/06/17 02:24:47;;;;;;;17.92;11.57;;;;;;;14.54;54.12;101501.88;4963159;28;20609;-72
2023/06/17 02:27:13;;;;;;;27.05;13.68;;;;;;;14.63;53.76;101500.56;4963065;28;20444;-70
2023/06/17 02:29:38;;;;;;;20.45;11.05;;;;;;;;;;4961851;28;20824;-72
2023/06/17 02:32:05;;;;;;;22.88;10.85;;;;;;;14.72;53.60;101499.28;4961997;28;20559;-73
2023/06/17 02:34:33;;;;;;;26.10;12.35;;;;;;;14.79;53.61;101505.09;4961805;28;20038;-72
2023/06/17 02:36:59;;;;;;;27.65;10.95;;;;;;;14.74;53.35;101508.78;4963268;28;20558;-72
2023/06/17 02:39:26;;;;;;;23.23;11.13;;;;;;;14.65;54.23;101503.13;4961599;28;20489;-71
2023/06/17 02:41:53;;;;;;;24.38;12.18;;;;;;;14.76;53.61;101503.47;4962031;28;20044;-73
2023/06/17 02:44:18;;;;;;;18.60;10.40;;;;;;;14.70;54.08;101507.25;4966812;28;20329;-72
2023/06/17 02:46:44;;;;;;;25.92;12.32;;;;;;;14.57;54.47;101503.50;4962489;28;20108;-76
2023/06/17 02:49:10;;;;;;;26.10;11.57;;;;;;;14.74;53.74;101503.53;4982271;28;20072;-76
2023/06/17 02:51:36;;;;;;;21.05;11.85;;;;;;;14.35;54.31;101501.81;4949319;28;20070;-76
2023/06/17 02:54:02;;;;;;;21.05;11.65;;;;;;;14.47;54.23;101499.56;4969519;28;20053;-71
2023/06/17 02:56:27;;;;;;;26.73;11.20;;;;;;;14.58;54.15;101502.56;4963739;28;20575;-71
2023/06/17 02:58:53;;;;;;;21.00;10.32;;;;;;;14.70;53.70;101499.38;4966850;28;20645;-74
2023/06/17 03:01:21;;;;;;;23.20;11.10;;;;;;;14.83;53.38;101507.50;4945890;28;20161;-69
2023/06/17 03:03:46;;;;;;;29.77;11.43;;;;;;;14.90;53.30;101502.78;4961698;28;20026;-72
2023/06/17 03:06:13;;;;;;;19.90;11.00;;;;;;;14.79;53.63;101499.81;4963460;28;20054;-71
2023/06/17 03:08:42;;;;;;;28.95;11.63;;;;;;;14.66;53.38;101505.69;4960819;28;20125;-75
2023/06/17 03:11:08;;;;;;;19.23;10.38;;;;;;;14.75;53.57;101505.25;4962728;28;20055;-71
2023/06/17 03:13:35;;;;;;;19.40;11.43;;;;;;;14.79;53.61;101510.34;4944276;28;20530;-70
2023/06/17 03:16:05;;;;;;;19.70;11.25;;;;;;;14.88;53.44;101500.25;4961089;28;20819;-72
2023/06/17 03:18:32;;;;;;;22.55;10.32;;;;;;;14.89;52.63;101512.47;4965059;28;20039;-71
2023/06/17 03:20:58;;;;;;;21.92;10.50;;;;;;;14.83;53.64;101506.66;4960268;28;20087;-71
2023/06/17 03:23:24;;;;;;;24.63;11.80;;;;;;;14.92;53.10;101508.84;4964893;28;20046;-72
2023/06/17 03:25:51;;;;;;;24.92;11.13;;;;;;;14.90;52.98;101505.44;4964514;28;20440;-72
2023/06/17 03:28:18;;;;;;;24.02;12.00;;;;;;;14.70;53.43;101511.63;4981612;28;20025;-72
2023/06/17 03:30:44;;;;;;;22.55;11.45;;;;;;;14.66;53.58;101504.84;4980283;28;20035;-64
2023/06/17 03:33:12;;;;;;;23.27;11.90;;;;;;;14.86;53.52;101507.38;4967717;28;20030;-69
2023/06/17 03:35:38;;;;;;;27.67;11.88;;;;;;;14.90;53.02;101503.69;4954236;28;20042;-73
2023/06/17 03:38:04;;;;;;;19.25;11.73;;;;;;;14.88;53.16;101495.00;4966062;28;20042;-74
2023/06/17 03:40:29;;;;;;;21.15;11.80;;;;;;;14.90;53.42;101492.28;4965996;28;20515;-70
2023/06/17 03:42:57;;;;;;;21.90;10.77;;;;;;;14.94;52.98;101501.72;4964816;28;20105;-67
2023/06/17 03:45:23;;;;;;;24.10;11.40;;;;;;;14.90;53.15;101498.41;4969537;28;20753;-79
2023/06/17 03:47:50;;;;;;;22.00;10.57;;;;;;;14.81;52.65;101503.25;4953423;28;20547;-73
2023/06/17 03:50:16;;;;;;;26.13;11.15;;;;;;;14.92;52.68;101495.69;4964515;28;20041;-74
2023/06/17 03:52:42;;;;;;;20.80;10.75;;;;;;;14.92;52.31;101495.69;4967540;28;20373;-70
2023/06/17 03:55:08;;;;;;;18.55;10.48;;;;;;;14.80;52.39;101494.50;4963762;28;20042;-64
2023/06/17 03:57:35;;;;;;;21.63;10.45;;;;;;;14.66;52.54;101500.44;4949175;28;20053;-71
2023/06/17 04:00:00;;;;;;;21.98;10.20;;;;;;;14.35;53.15;101496.56;4964057;28;20038;-70
2023/06/17 04:02:26;;;;;;;25.17;9.43;;;;;;;14.60;52.89;101500.72;4963684;28;20624;-69
2023/06/17 04:04:52;;;;;;;18.77;9.55;;;;;;;14.40;53.03;101504.25;4964706;28;20034;-71
2023/06/17 04:07:19;;;;;;;15.88;9.30;;;;;;;14.61;52.78;101507.66;4951123;28;20065;-71
2023/06/17 04:09:45;;;;;;;22.73;9.15;;;;;;;14.50;53.01;101512.56;4968861;28;20096;-75
2023/06/17 04:12:11;;;;;;;22.23;9.48;;;;;;;14.65;52.91;101514.50;4964926;28;20050;-76
2023/06/17 04:14:37;;;;;;;16.20;9.90;;;;;;;14.65;53.11;101511.88;4963661;28;20113;-72
2023/06/17 04:17:03;;;;;;;20.48;9.25;;;;;;;14.73;52.52;101509.72;4963804;28;20312;-70
2023/06/17 04:19:29;;;;;;;17.55;9.90;;;;;;;14.75;52.51;101509.66;4970777;28;20035;-65
2023/06/17 04:21:54;;;;;;;20.77;9.02;;;;;;;14.95;52.05;101504.28;4960428;28;20774;-72
2023/06/17 04:24:20;;;;;;;20.95;9.77;;;;;;;14.68;52.14;101509.09;4981663;28;20517;-70
2023/06/17 04:26:45;;;;;;;20.25;9.65;;;;;;;14.87;51.81;101508.22;4963537;28;20033;-68
2023/06/17 04:29:14;;;;;;;19.60;10.25;;;;;;;14.95;51.98;101516.59;4957605;28;20100;-73
2023/06/17 04:31:40;;;;;;;19.90;9.80;;;;;;;15.08;51.83;101517.72;4963056;28;20045;-75
2023/06/17 04:34:07;;;;;;;17.60;9.82;;;;;;;15.19;51.83;101514.53;4963578;28;20038;-77
2023/06/17 04:36:33;;;;;;;17.05;9.82;;;;;;;15.10;51.59;101521.13;4964803;28;20042;-67
2023/06/17 04:38:59;;;;;;;20.98;10.38;;;;;;;15.08;51.73;101511.56;4963564;28;20081;-66
2023/06/17 04:41:26;;;;;;;18.52;10.27;;;;;;;15.06;51.43;101513.44;4962589;28;21096;-70
2023/06/17 04:43:53;;;;;;;22.48;10.57;;;;;;;15.17;51.05;101519.91;4963904;28;20092;-73
2023/06/17 04:46:20;;;;;;;20.10;10.05;;;;;;;14.85;51.75;101512.69;4964841;28;20045;-71
2023/06/17 04:48:46;;;;;;;19.42;9.65;;;;;;;15.04;51.21;101513.53;4966195;28;20026;-75
2023/06/17 04:51:12;;;;;;;19.20;9.75;;;;;;;15.17;51.22;101519.91;4965596;28;20641;-71
2023/06/17 04:53:39;;;;;;;21.42;9.63;;;;;;;15.11;51.05;101508.81;4968902;28;20041;-71
2023/06/17 04:56:06;;;;;;;16.73;9.10;;;;;;;14.95;51.39;101519.25;4965349;28;20034;-67
2023/06/17 04:58:35;;;;;;;22.80;9.90;;;;;;;14.88;51.88;101513.41;4959938;28;20053;-70
2023/06/17 05:01:10;;;;;;;16.55;8.55;;;;;;;15.08;50.92;101515.09;4964557;28;20332;-71
2023/06/17 05:03:36;;;;;;;22.17;10.00;;;;;;;15.09;50.98;101506.25;4963036;28;20088;-72
2023/06/17 05:06:02;;;;;;;21.05;9.93;;;;;;;15.15;50.35;101516.47;4966137;28;20500;-74
2023/06/17 05:08:29;;;;;;;19.95;8.70;;;;;;;14.99;50.88;101512.88;4965249;28;20049;-71
2023/06/17 05:10:56;;;;;;;14.10;8.10;;;;;;;15.30;50.47;101506.13;4962649;28;20510;-75
2023/06/17 05:13:22;;;;;;;18.92;9.27;;;;;;;15.13;50.58;101515.72;4965343;28;20126;-73
2023/06/17 05:15:48;;;;;;;15.93;9.70;;;;;;;15.20;50.61;101516.25;4964751;28;20038;-69
2023/06/17 05:18:14;;;;;;;17.02;8.07;;;;;;;15.25;50.32;101514.28;4965468;28;20759;-74
2023/06/17 05:20:40;;;;;;;18.63;9.07;;;;;;;15.37;50.11;101512.78;4967199;28;20106;-73
2023/06/17 05:23:06;;;;;;;23.05;9.13;;;;;;;15.53;49.80;101511.09;4964856;28;20348;-71
2023/06/17 05:25:32;;;;;;;22.13;9.98;;;;;;;15.52;49.81;101511.19;4952207;28;20509;-71
2023/06/17 05:27:58;;;;;;;18.33;10.23;;;;;;;15.21;50.77;101514.47;4961840;28;20282;-72
2023/06/17 05:30:26;;;;;;;21.70;10.50;;;;;;;15.53;50.31;101508.47;4963737;28;20038;-73
2023/06/17 05:32:54;;;;;;;19.85;8.98;;;;;;;15.56;49.94;101510.09;4962939;28;20113;-73
2023/06/17 05:35:20;;;;;;;18.95;9.63;;;;;;;15.77;49.99;101503.72;4964030;28;20036;-71
2023/06/17 05:37:46;;;;;;;20.90;9.65;;;;;;;16.07;49.30;101502.22;4964066;28;20045;-70
2023/06/17 05:40:13;;;;;;;19.05;9.65;;;;;;;16.23;48.54;101513.66;4960377;28;20034;-70
2023/06/17 05:42:40;;;;;;;17.63;9.50;;;;;;;16.13;48.10;101512.41;4962824;28;20053;-69
2023/06/17 05:45:07;;;;;;;18.17;9.20;;;;;;;16.24;48.52;101511.84;4952748;28;20632;-72
2023/06/17 05:47:33;;;;;;;21.95;9.77;;;;;;;16.24;47.29;101520.59;4951048;28;20022;-71
2023/06/17 05:49:59;;;;;;;20.20;9.38;;;;;;;16.20;48.19;101519.09;4962696;28;20068;-71
2023/06/17 05:52:27;;;;;;;18.33;9.48;;;;;;;16.15;48.54;101521.09;4960397;28;20058;-69
2023/06/17 05:54:53;;;;;;;14.18;8.73;;;;;;;16.12;48.09;101521.28;4961212;28;20835;-69
2023/06/17 05:57:21;;;;;;;19.02;9.43;;;;;;;16.34;48.07;101521.81;4965072;28;20046;-68
2023/06/17 05:59:47;;;;;;;20.17;9.10;;;;;;;16.47;47.24;101521.19;4961781;28;20568;-69
2023/06/17 06:02:13;;;;;;;17.63;9.85;;;;;;;16.50;47.34;101513.91;4951156;28;20049;-69
2023/06/17 06:04:38;;;;;;;17.05;9.68;;;;;;;16.33;47.77;101520.13;4963012;28;20038;-69
2023/06/17 06:07:04;;;;;;;25.38;10.57;;;;;;;16.80;46.73;101519.31;4960812;28;20042;-69
2023/06/17 06:09:29;;;;;;;17.02;9.73;;;;;;;16.86;46.70;101522.56;4963768;28;20038;-69
2023/06/17 06:11:55;;;;;;;20.83;9.52;;;;;;;17.28;45.73;101528.97;4960623;28;20046;-70
2023/06/17 06:14:21;;;;;;;22.17;9.82;;;;;;;16.76;46.83;101527.50;4950611;28;20034;-69
2023/06/17 06:16:47;;;;;;;18.80;9.05;;;;;;;16.79;46.67;101529.97;4962204;28;20049;-69
2023/06/17 06:19:14;;;;;;;17.10;9.23;;;;;;;16.98;46.17;101524.50;4960824;28;20042;-69
2023/06/17 06:21:42;;;;;;;20.23;8.70;;;;;;;16.76;46.45;101525.72;4922430;28;20041;-71
2023/06/17 06:24:08;;;;;;;18.85;8.85;;;;;;;16.88;46.77;101523.31;4945617;28;20520;-69
2023/06/17 06:26:36;;;;;;;17.85;8.90;;;;;;;17.15;45.88;101534.09;4968091;28;20042;-70
2023/06/17 06:29:03;;;;;;;17.02;8.70;;;;;;;17.48;44.91;101526.03;4976508;28;20038;-70
2023/06/17 06:31:29;;;;;;;11.18;7.80;;;;;;;18.03;43.43;101527.16;4950838;28;20092;-70
2023/06/17 06:33:54;;;;;;;16.90;9.60;;;;;;;17.69;44.46;101528.31;4963172;28;20367;-70
2023/06/17 06:36:20;;;;;;;27.35;10.02;;;;;;;17.77;45.07;101523.44;4960495;28;20042;-71
2023/06/17 06:38:46;;;;;;;18.63;9.63;;;;;;;17.77;44.66;101532.22;4962607;28;20042;-69
2023/06/17 06:41:14;;;;;;;15.15;7.78;;;;;;;17.82;43.67;101527.50;4968157;28;20038;-69
2023/06/17 06:43:51;;;;;;;18.08;8.00;;;;;;;18.14;43.59;101532.63;4977008;28;20157;-70
2023/06/17 06:46:18;;;;;;;35.90;8.52;;;;;;;18.76;42.72;101534.91;4957519;28;20037;-70
2023/06/17 06:48:44;;;;;;;16.33;7.50;;;;;;;18.81;41.49;101534.59;4979306;28;20022;-70
2023/06/17 06:51:09;;;;;;;16.30;7.72;;;;;;;18.61;42.75;101541.22;4975369;28;20046;-69
2023/06/17 06:53:35;;;;;;;15.57;7.35;;;;;;;19.00;42.06;101536.97;4963169;28;20803;-70
2023/06/17 06:56:01;;;;;;;13.50;7.07;;;;;;;18.85;41.23;101539.63;4963622;28;20404;-70
2023/06/17 06:58:32;;;;;;;11.82;6.80;;;;;;;18.56;42.80;101532.69;4956268;28;20030;-70
2023/06/17 07:00:58;;;;;;;20.52;8.75;;;;;;;18.17;42.89;101536.88;4959784;28;20133;-70
2023/06/17 07:03:24;;;;;;;14.77;7.65;;;;;;;17.94;44.34;101544.44;4963317;28;20092;-70
2023/06/17 07:05:49;;;;;;;10.38;6.80;;;;;;;18.42;43.18;101539.72;4967405;28;20598;-70
2023/06/17 07:08:15;;;;;;;12.05;7.45;;;;;;;18.69;42.38;101542.41;4966073;28;20308;-69
2023/06/17 07:10:41;;;;;;;15.98;7.82;;;;;;;18.99;41.15;101546.72;4979326;28;20045;-70
2023/06/17 07:13:07;;;;;;;13.50;6.70;;;;;;;18.93;40.17;101533.84;4965210;28;20112;-70
2023/06/17 07:15:33;;;;;;;15.32;7.03;;;;;;;20.47;38.40;101539.34;4962859;28;20345;-70
2023/06/17 07:17:59;;;;;;;13.32;7.30;;;;;;;20.90;37.43;101536.22;4968475;28;20177;-69
2023/06/17 07:20:25;;;;;;;13.18;7.65;;;;;;;20.78;37.47;101535.31;4945581;28;20589;-69
2023/06/17 07:22:50;;;;;;;17.77;6.93;;;;;;;20.19;38.29;101535.94;4957136;28;20771;-72
2023/06/17 07:25:17;;;;;;;11.52;6.40;;;;;;;19.98;38.38;101540.97;4965436;28;20097;-71
2023/06/17 07:27:44;;;;;;;15.63;7.78;;;;;;;20.83;37.99;101546.44;4966413;28;20061;-71
2023/06/17 07:30:11;;;;;;;17.13;8.38;;;;;;;24.15;32.50;101543.09;4966723;28;20140;-72
2023/06/17 07:32:37;;;;;;;16.00;6.70;;;;;;;23.97;32.45;101537.53;4962016;28;20594;-72
2023/06/17 07:35:03;;;;;;;11.25;5.63;;;;;;;24.07;32.09;101541.06;4971411;28;20044;-71
2023/06/17 07:37:29;;;;;;;15.68;6.55;;;;;;;23.42;33.10;101549.25;4974007;28;20034;-69
2023/06/17 07:39:56;;;;;;;10.40;6.00;;;;;;;23.91;31.86;101544.22;4977746;28;20037;-69
2023/06/17 07:42:22;;;;;;;14.77;7.10;;;;;;;24.42;31.20;101547.84;4966674;28;20161;-69
2023/06/17 07:44:47;;;;;;;11.65;7.03;;;;;;;25.67;28.60;101546.22;4964244;28;20540;-69
2023/06/17 07:47:13;;;;;;;10.48;6.72;;;;;;;27.18;26.87;101536.09;4963897;28;20035;-69
2023/06/17 07:49:38;;;;;;;8.55;6.55;;;;;;;27.38;26.64;101537.59;4963153;28;20519;-69
2023/06/17 07:52:04;;;;;;;11.90;7.18;;;;;;;25.66;28.71;101549.03;4962901;28;20527;-71
2023/06/17 07:54:30;;;;;;;16.00;6.68;;;;;;;24.13;30.66;101548.56;4936680;28;20121;-71
2023/06/17 07:56:56;;;;;;;12.60;6.75;;;;;;;25.73;28.73;101543.94;4962602;28;20052;-72
2023/06/17 07:59:22;;;;;;;11.52;6.18;;;;;;;28.27;25.79;101533.75;4963190;28;20057;-72
2023/06/17 08:01:47;;;;;;;12.63;6.78;;;;;;;28.44;24.88;101531.13;4961668;28;20116;-72
2023/06/17 08:04:13;;;;;;;14.32;6.78;;;;;;;26.01;27.83;101542.16;4962957;28;20034;-69
2023/06/17 08:06:40;;;;;;;12.90;7.40;;;;;;;24.33;30.63;101543.28;4960021;28;20504;-69
2023/06/17 08:09:06;;;;;;;16.05;6.68;;;;;;;24.38;30.98;101543.72;4963205;28;20085;-71
2023/06/17 08:11:32;;;;;;;11.57;6.85;;;;;;;26.67;27.38;101543.81;4960663;28;20212;-69
2023/06/17 08:13:57;;;;;;;12.05;6.72;;;;;;;27.38;26.18;101542.94;4963024;28;20034;-71
2023/06/17 08:16:23;;;;;;;15.90;7.53;;;;;;;25.58;28.51;101540.91;4962053;28;20907;-71
2023/06/17 08:18:48;;;;;;;9.60;6.47;;;;;;;27.07;27.09;101537.13;4961883;28;20897;-69
2023/06/17 08:21:14;;;;;;;10.63;6.13;;;;;;;29.06;24.55;101530.72;4960446;28;20187;-69
2023/06/17 08:23:40;;;;;;;10.23;6.30;;;;;;;27.38;25.29;101539.44;4951780;28;20057;-69
2023/06/17 08:26:05;;;;;;;9.93;5.95;;;;;;;26.10;27.41;101541.28;4946536;28;20073;-72
2023/06/17 08:28:31;;;;;;;10.73;6.28;;;;;;;26.39;28.18;101542.97;4966918;28;20030;-71
2023/06/17 08:30:56;;;;;;;9.48;6.10;;;;;;;26.83;26.32;101540.47;4959359;28;20088;-70
2023/06/17 08:33:22;;;;;;;11.38;6.68;;;;;;;27.67;26.01;101548.03;4961897;28;21017;-71
2023/06/17 08:35:47;;;;;;;10.07;6.72;;;;;;;26.88;26.82;101540.84;4961024;28;20376;-71
2023/06/17 08:38:13;;;;;;;15.15;6.75;;;;;;;24.94;30.01;101542.28;4960695;28;20143;-71
2023/06/17 08:40:44;;;;;;;14.60;7.30;;;;;;;22.61;33.24;101547.94;4959517;28;20129;-71
2023/06/17 08:43:11;;;;;;;13.20;6.65;;;;;;;22.59;33.05;101545.38;4963205;28;20034;-70
2023/06/17 08:45:37;;;;;;;13.65;8.02;;;;;;;22.99;33.67;101544.81;4959818;28;20034;-69
2023/06/17 08:48:03;;;;;;;9.60;6.60;;;;;;;23.60;32.02;101535.31;4965461;28;20827;-69
2023/06/17 08:50:30;;;;;;;12.50;6.57;;;;;;;24.48;30.46;101541.97;4959460;28;20038;-69
2023/06/17 08:52:57;;;;;;;12.85;7.30;;;;;;;25.54;28.84;101542.16;4962709;28;20097;-69
2023/06/17 08:55:23;;;;;;;14.05;7.00;;;;;;;27.93;25.59;101531.91;4959244;28;20491;-72
2023/06/17 08:57:51;;;;;;;14.68;6.78;;;;;;;29.10;24.19;101534.75;4963012;28;20046;-71
2023/06/17 09:00:17;;;;;;;11.63;5.97;;;;;;;29.81;22.85;101541.25;4960375;28;20042;-71
2023/06/17 09:02:44;;;;;;;11.27;6.13;;;;;;;30.41;23.03;101547.94;4961798;28;20093;-73
2023/06/17 09:05:10;;;;;;;8.98;6.22;;;;;;;30.97;21.77;101545.03;4964286;28;20044;-70
2023/06/17 09:07:37;;;;;;;13.45;7.10;;;;;;;27.59;25.49;101544.47;4959237;28;20542;-70
2023/06/17 09:10:05;;;;;;;13.13;6.53;;;;;;;25.55;28.57;101544.69;4962694;28;20047;-70
2023/06/17 09:12:39;;;;;;;13.65;7.63;;;;;;;25.24;29.41;101541.31;4960465;28;20153;-70
2023/06/17 09:15:15;;;;;;;16.10;6.93;;;;;;;24.78;29.66;101542.84;4961385;28;20555;-70
2023/06/17 09:17:44;;;;;;;11.98;6.28;;;;;;;26.55;28.37;101542.31;4960900;28;20030;-70
2023/06/17 09:20:15;;;;;;;14.70;6.25;;;;;;;27.04;26.16;101535.63;4960174;28;20097;-70
2023/06/17 09:22:45;;;;;;;11.32;5.72;;;;;;;28.64;23.67;101532.53;4960455;28;20045;-70
2023/06/17 09:25:15;;;;;;;14.37;6.67;;;;;;;27.97;25.84;101542.34;4936582;28;20046;-70
2023/06/17 09:27:59;;;;;;;13.32;6.88;;;;;;;28.43;25.06;101540.19;4951883;28;20841;-71
2023/06/17 09:30:25;;;;;;;16.38;7.65;;;;;;;26.40;26.78;101536.63;4957116;28;20554;-70
2023/06/17 09:32:52;;;;;;;9.27;6.20;;;;;;;25.29;29.01;101546.25;4962039;28;20038;-70
2023/06/17 09:35:17;;;;;;;10.65;6.45;;;;;;;24.87;29.97;101552.69;4958720;28;20495;-69
2023/06/17 09:37:47;;;;;;;11.48;6.93;;;;;;;24.58;30.54;101550.81;4959585;28;20054;-70
2023/06/17 09:40:15;;;;;;;10.93;6.85;;;;;;;25.13;29.87;101546.81;4960664;28;20323;-71
2023/06/17 09:42:42;;;;;;;10.52;6.45;;;;;;;25.53;29.35;101548.50;4961674;28;20433;-70
2023/06/17 09:45:11;;;;;;;13.45;6.60;;;;;;;24.93;29.97;101544.13;4961740;28;20197;-71
2023/06/17 09:47:37;;;;;;;11.75;6.57;;;;;;;24.62;30.00;101538.03;4949265;28;20031;-71
2023/06/17 09:50:10;;;;;;;9.93;8.13;;;;;;;24.83;30.18;101540.59;4958473;28;20054;-71
2023/06/17 09:52:37;;;;;;;11.73;7.15;;;;;;;24.75;30.37;101540.44;4938609;28;20039;-71
2023/06/17 09:55:05;;;;;;;10.32;7.55;;;;;;;24.48;30.92;101530.41;4959431;28;20125;-72
2023/06/17 09:57:31;;;;;;;16.05;7.82;;;;;;;25.00;29.76;101542.59;4961239;28;20515;-70
2023/06/17 10:00:00;;;;;;;14.93;7.32;;;;;;;25.87;28.76;101536.28;4960105;28;20574;-71
2023/06/17 10:02:31;;;;;;;16.70;8.60;;;;;;;25.07;31.07;101547.41;4958868;28;20070;-70
2023/06/17 10:04:57;;;;;;;18.45;8.10;;;;;;;25.22;29.77;101552.19;4961989;28;20045;-70
2023/06/17 10:07:26;;;;;;;19.45;8.38;;;;;;;24.72;30.54;101541.56;4961184;28;20034;-70
2023/06/17 10:09:52;;;;;;;15.48;8.07;;;;;;;24.92;31.12;101545.09;4941661;28;20049;-70
2023/06/17 10:12:21;;;;;;;12.95;7.70;;;;;;;25.53;29.27;101551.16;4958507;28;20038;-75
2023/06/17 10:14:48;;;;;;;16.90;8.15;;;;;;;25.57;28.76;101549.88;4960599;28;20084;-70
2023/06/17 10:17:16;;;;;;;14.27;7.22;;;;;;;25.30;28.73;101537.25;4961659;28;20046;-70
2023/06/17 10:19:43;;;;;;;11.75;7.63;;;;;;;25.11;29.61;101533.59;4958097;28;20237;-70
2023/06/17 10:22:12;;;;;;;12.80;7.25;;;;;;;25.37;29.82;101533.84;4960158;28;20046;-70
2023/06/17 10:24:40;;;;;;;11.88;6.65;;;;;;;25.49;29.36;101534.53;4957595;28;20046;-70
2023/06/17 10:27:06;;;;;;;15.00;7.55;;;;;;;25.88;28.76;101532.59;4976283;28;20600;-70
2023/06/17 10:29:32;;;;;;;14.27;6.60;;;;;;;26.01;28.74;101532.28;4958631;28;20045;-70
2023/06/17 10:32:25;;;;;;;11.45;7.35;;;;;;;26.33;29.67;101535.53;4958998;28;20042;-70
2023/06/17 10:35:06;;;;;;;16.75;7.00;;;;;;;25.25;29.94;101543.00;4950266;28;20272;-70
2023/06/17 10:37:44;;;;;;;14.32;7.82;;;;;;;24.60;30.83;101540.84;4957979;28;20077;-71
2023/06/17 10:40:26;;;;;;;16.60;7.80;;;;;;;24.62;31.15;101533.53;4960858;28;20038;-71
2023/06/17 10:43:14;;;;;;;12.50;7.30;;;;;;;24.82;30.53;101533.56;4960654;28;20042;-70
2023/06/17 10:45:56;;;;;;;18.88;7.72;;;;;;;25.01;30.66;101533.59;4941856;28;20202;-71
2023/06/17 10:48:33;;;;;;;19.17;7.53;;;;;;;25.78;29.66;101536.34;4958518;28;20042;-71
2023/06/17 10:51:09;;;;;;;16.00;7.07;;;;;;;25.66;30.26;101532.97;4959601;28;20046;-70
2023/06/17 10:53:36;;;;;;;14.77;7.65;;;;;;;25.84;29.65;101533.91;4964427;28;20437;-70
2023/06/17 10:56:04;;;;;;;15.30;7.35;;;;;;;25.59;29.50;101537.22;4960588;28;20046;-70
2023/06/17 10:58:42;;;;;;;17.45;7.07;;;;;;;25.02;30.60;101532.63;4967200;28;20108;-70
2023/06/17 11:01:09;;;;;;;12.27;6.32;;;;;;;25.53;30.20;101532.44;4961559;28;20053;-71
2023/06/17 11:03:36;;;;;;;10.65;6.78;;;;;;;25.83;29.69;101532.22;4958984;28;20134;-71
2023/06/17 11:06:05;;;;;;;12.70;6.38;;;;;;;25.91;29.79;101535.97;4961738;28;20653;-71
2023/06/17 11:08:33;;;;;;;10.60;6.75;;;;;;;25.85;29.06;101532.91;4964315;28;20053;-71
2023/06/17 11:11:09;;;;;;;11.65;6.45;;;;;;;26.18;29.27;101540.53;4959939;28;20062;-71
2023/06/17 11:13:40;;;;;;;18.33;7.95;;;;;;;25.24;29.17;101534.16;4967199;28;20045;-71
2023/06/17 11:16:07;;;;;;;;;;;;;;;25.38;29.82;101540.88;4927953;28;20061;-71
2023/06/17 11:18:45;;;;;;;17.67;7.35;;;;;;;25.92;28.75;101532.31;4962568;28;19918;-71